sensor_id;sensor_type;location;lat;lon;timestamp;P1;durP1;ratioP1;P2;durP2;ratioP2
59193;SDS011;44967;48.598;15.650;2023-05-20T00:00:16;40.20;;;22.77;;
59193;SDS011;44967;48.598;15.650;2023-05-20T00:02:42;35.63;;;21.35;;
59193;SDS011;44967;48.598;15.650;2023-05-20T00:05:07;32.15;;;20.55;;
59193;SDS011;44967;48.598;15.650;2023-05-20T00:07:33;33.85;;;21.85;;
59193;SDS011;44967;48.598;15.650;2023-05-20T00:09:59;35.08;;;21.55;;
59193;SDS011;44967;48.598;15.650;2023-05-20T00:12:25;33.30;;;21.58;;
59193;SDS011;44967;48.598;15.650;2023-05-20T00:14:50;32.05;;;20.90;;
59193;SDS011;44967;48.598;15.650;2023-05-20T00:17:16;31.42;;;20.48;;
59193;SDS011;44967;48.598;15.650;2023-05-20T00:19:42;33.92;;;19.98;;
59193;SDS011;44967;48.598;15.650;2023-05-20T00:22:07;34.95;;;20.40;;
59193;SDS011;44967;48.598;15.650;2023-05-20T00:24:33;32.28;;;20.85;;
59193;SDS011;44967;48.598;15.650;2023-05-20T00:26:59;31.15;;;19.70;;
59193;SDS011;44967;48.598;15.650;2023-05-20T00:29:24;31.55;;;20.17;;
59193;SDS011;44967;48.598;15.650;2023-05-20T00:31:50;33.88;;;22.00;;
59193;SDS011;44967;48.598;15.650;2023-05-20T00:34:16;37.78;;;22.95;;
59193;SDS011;44967;48.598;15.650;2023-05-20T00:36:42;43.00;;;24.75;;
59193;SDS011;44967;48.598;15.650;2023-05-20T00:39:07;38.20;;;23.67;;
59193;SDS011;44967;48.598;15.650;2023-05-20T00:41:33;34.83;;;22.00;;
59193;SDS011;44967;48.598;15.650;2023-05-20T00:43:59;46.47;;;26.42;;
59193;SDS011;44967;48.598;15.650;2023-05-20T00:46:25;39.45;;;24.63;;
59193;SDS011;44967;48.598;15.650;2023-05-20T00:48:52;37.05;;;23.15;;
59193;SDS011;44967;48.598;15.650;2023-05-20T00:51:18;36.78;;;22.25;;
59193;SDS011;44967;48.598;15.650;2023-05-20T00:53:44;40.88;;;25.83;;
59193;SDS011;44967;48.598;15.650;2023-05-20T00:56:10;40.47;;;24.20;;
59193;SDS011;44967;48.598;15.650;2023-05-20T00:58:36;41.65;;;24.40;;
59193;SDS011;44967;48.598;15.650;2023-05-20T01:01:03;35.28;;;22.80;;
59193;SDS011;44967;48.598;15.650;2023-05-20T01:03:30;33.78;;;20.40;;
59193;SDS011;44967;48.598;15.650;2023-05-20T01:05:56;35.67;;;22.15;;
59193;SDS011;44967;48.598;15.650;2023-05-20T01:08:22;34.22;;;21.08;;
59193;SDS011;44967;48.598;15.650;2023-05-20T01:10:50;35.58;;;21.45;;
59193;SDS011;44967;48.598;15.650;2023-05-20T01:13:26;35.20;;;21.33;;
59193;SDS011;44967;48.598;15.650;2023-05-20T01:15:58;32.30;;;21.08;;
59193;SDS011;44967;48.598;15.650;2023-05-20T01:18:25;37.25;;;21.90;;
59193;SDS011;44967;48.598;15.650;2023-05-20T01:20:54;39.83;;;24.33;;
59193;SDS011;44967;48.598;15.650;2023-05-20T01:23:58;38.95;;;25.05;;
59193;SDS011;44967;48.598;15.650;2023-05-20T01:26:18;37.00;;;22.60;;
59193;SDS011;44967;48.598;15.650;2023-05-20T01:28:45;34.83;;;22.88;;
59193;SDS011;44967;48.598;15.650;2023-05-20T01:31:17;38.40;;;22.50;;
59193;SDS011;44967;48.598;15.650;2023-05-20T01:33:52;37.08;;;22.83;;
59193;SDS011;44967;48.598;15.650;2023-05-20T01:36:23;39.97;;;23.65;;
59193;SDS011;44967;48.598;15.650;2023-05-20T01:38:51;42.92;;;24.52;;
59193;SDS011;44967;48.598;15.650;2023-05-20T01:41:18;41.75;;;25.67;;
59193;SDS011;44967;48.598;15.650;2023-05-20T01:43:45;38.72;;;23.38;;
59193;SDS011;44967;48.598;15.650;2023-05-20T01:46:11;48.53;;;29.35;;
59193;SDS011;44967;48.598;15.650;2023-05-20T01:48:36;48.60;;;30.30;;
59193;SDS011;44967;48.598;15.650;2023-05-20T01:51:05;47.35;;;26.17;;
59193;SDS011;44967;48.598;15.650;2023-05-20T01:53:31;43.35;;;24.83;;
59193;SDS011;44967;48.598;15.650;2023-05-20T01:55:57;44.97;;;27.50;;
59193;SDS011;44967;48.598;15.650;2023-05-20T01:58:23;39.00;;;24.77;;
59193;SDS011;44967;48.598;15.650;2023-05-20T02:00:48;40.70;;;23.77;;
59193;SDS011;44967;48.598;15.650;2023-05-20T02:03:14;39.28;;;23.85;;
59193;SDS011;44967;48.598;15.650;2023-05-20T02:05:40;41.95;;;24.63;;
59193;SDS011;44967;48.598;15.650;2023-05-20T02:08:05;40.75;;;24.90;;
59193;SDS011;44967;48.598;15.650;2023-05-20T02:10:31;39.13;;;23.83;;
59193;SDS011;44967;48.598;15.650;2023-05-20T02:12:57;43.25;;;24.88;;
59193;SDS011;44967;48.598;15.650;2023-05-20T02:15:23;34.75;;;22.33;;
59193;SDS011;44967;48.598;15.650;2023-05-20T02:17:49;40.38;;;23.92;;
59193;SDS011;44967;48.598;15.650;2023-05-20T02:20:15;33.65;;;21.40;;
59193;SDS011;44967;48.598;15.650;2023-05-20T02:22:41;36.85;;;23.58;;
59193;SDS011;44967;48.598;15.650;2023-05-20T02:25:06;36.97;;;23.10;;
59193;SDS011;44967;48.598;15.650;2023-05-20T02:27:32;40.25;;;22.30;;
59193;SDS011;44967;48.598;15.650;2023-05-20T02:30:01;42.53;;;25.58;;
59193;SDS011;44967;48.598;15.650;2023-05-20T02:32:29;42.08;;;25.85;;
59193;SDS011;44967;48.598;15.650;2023-05-20T02:34:55;37.53;;;23.02;;
59193;SDS011;44967;48.598;15.650;2023-05-20T02:37:20;39.33;;;23.90;;
59193;SDS011;44967;48.598;15.650;2023-05-20T02:39:46;36.80;;;23.30;;
59193;SDS011;44967;48.598;15.650;2023-05-20T02:42:11;37.30;;;22.40;;
59193;SDS011;44967;48.598;15.650;2023-05-20T02:44:38;40.78;;;24.92;;
59193;SDS011;44967;48.598;15.650;2023-05-20T02:47:03;39.95;;;23.67;;
59193;SDS011;44967;48.598;15.650;2023-05-20T02:49:29;42.50;;;24.98;;
59193;SDS011;44967;48.598;15.650;2023-05-20T02:51:55;39.20;;;23.73;;
59193;SDS011;44967;48.598;15.650;2023-05-20T02:54:21;39.45;;;23.80;;
59193;SDS011;44967;48.598;15.650;2023-05-20T02:56:47;36.42;;;21.65;;
59193;SDS011;44967;48.598;15.650;2023-05-20T02:59:12;37.38;;;22.95;;
59193;SDS011;44967;48.598;15.650;2023-05-20T03:01:38;41.63;;;23.48;;
59193;SDS011;44967;48.598;15.650;2023-05-20T03:04:04;36.40;;;22.83;;
59193;SDS011;44967;48.598;15.650;2023-05-20T03:06:30;41.65;;;24.63;;
59193;SDS011;44967;48.598;15.650;2023-05-20T03:08:57;42.03;;;24.65;;
59193;SDS011;44967;48.598;15.650;2023-05-20T03:11:23;37.58;;;22.92;;
59193;SDS011;44967;48.598;15.650;2023-05-20T03:13:49;44.92;;;24.58;;
59193;SDS011;44967;48.598;15.650;2023-05-20T03:16:17;42.75;;;23.92;;
59193;SDS011;44967;48.598;15.650;2023-05-20T03:18:42;35.30;;;22.33;;
59193;SDS011;44967;48.598;15.650;2023-05-20T03:21:08;35.90;;;23.10;;
59193;SDS011;44967;48.598;15.650;2023-05-20T03:23:34;37.90;;;23.35;;
59193;SDS011;44967;48.598;15.650;2023-05-20T03:26:00;34.40;;;21.83;;
59193;SDS011;44967;48.598;15.650;2023-05-20T03:28:25;36.25;;;22.17;;
59193;SDS011;44967;48.598;15.650;2023-05-20T03:30:51;38.30;;;22.85;;
59193;SDS011;44967;48.598;15.650;2023-05-20T03:33:17;35.45;;;22.05;;
59193;SDS011;44967;48.598;15.650;2023-05-20T03:35:43;35.30;;;22.23;;
59193;SDS011;44967;48.598;15.650;2023-05-20T03:38:09;37.88;;;23.00;;
59193;SDS011;44967;48.598;15.650;2023-05-20T03:40:35;38.05;;;22.42;;
59193;SDS011;44967;48.598;15.650;2023-05-20T03:43:00;38.58;;;22.60;;
59193;SDS011;44967;48.598;15.650;2023-05-20T03:45:26;40.40;;;23.33;;
59193;SDS011;44967;48.598;15.650;2023-05-20T03:47:52;41.28;;;22.95;;
59193;SDS011;44967;48.598;15.650;2023-05-20T03:50:17;44.72;;;23.63;;
59193;SDS011;44967;48.598;15.650;2023-05-20T03:52:43;43.38;;;24.08;;
59193;SDS011;44967;48.598;15.650;2023-05-20T03:55:09;38.70;;;23.20;;
59193;SDS011;44967;48.598;15.650;2023-05-20T03:57:34;42.55;;;23.27;;
59193;SDS011;44967;48.598;15.650;2023-05-20T04:00:02;40.78;;;23.23;;
59193;SDS011;44967;48.598;15.650;2023-05-20T04:02:35;40.33;;;22.60;;
59193;SDS011;44967;48.598;15.650;2023-05-20T04:05:02;43.67;;;23.00;;
59193;SDS011;44967;48.598;15.650;2023-05-20T04:07:29;44.25;;;23.85;;
59193;SDS011;44967;48.598;15.650;2023-05-20T04:09:57;39.97;;;22.75;;
59193;SDS011;44967;48.598;15.650;2023-05-20T04:12:23;44.92;;;23.23;;
59193;SDS011;44967;48.598;15.650;2023-05-20T04:14:58;40.20;;;23.25;;
59193;SDS011;44967;48.598;15.650;2023-05-20T04:17:28;45.22;;;23.85;;
59193;SDS011;44967;48.598;15.650;2023-05-20T04:19:55;43.90;;;23.17;;
59193;SDS011;44967;48.598;15.650;2023-05-20T04:22:22;43.60;;;25.38;;
59193;SDS011;44967;48.598;15.650;2023-05-20T04:24:48;43.08;;;22.98;;
59193;SDS011;44967;48.598;15.650;2023-05-20T04:27:14;40.28;;;22.50;;
59193;SDS011;44967;48.598;15.650;2023-05-20T04:29:40;44.97;;;23.88;;
59193;SDS011;44967;48.598;15.650;2023-05-20T04:32:13;44.78;;;24.58;;
59193;SDS011;44967;48.598;15.650;2023-05-20T04:34:42;39.53;;;22.35;;
59193;SDS011;44967;48.598;15.650;2023-05-20T04:37:09;37.95;;;22.33;;
59193;SDS011;44967;48.598;15.650;2023-05-20T04:39:35;43.33;;;23.42;;
59193;SDS011;44967;48.598;15.650;2023-05-20T04:42:02;41.75;;;23.48;;
59193;SDS011;44967;48.598;15.650;2023-05-20T04:44:27;40.83;;;23.05;;
59193;SDS011;44967;48.598;15.650;2023-05-20T04:46:54;40.67;;;23.08;;
59193;SDS011;44967;48.598;15.650;2023-05-20T04:49:22;40.58;;;23.15;;
59193;SDS011;44967;48.598;15.650;2023-05-20T04:51:50;41.92;;;23.23;;
59193;SDS011;44967;48.598;15.650;2023-05-20T04:54:17;42.65;;;23.80;;
59193;SDS011;44967;48.598;15.650;2023-05-20T04:56:44;41.05;;;23.30;;
59193;SDS011;44967;48.598;15.650;2023-05-20T04:59:11;44.75;;;25.38;;
59193;SDS011;44967;48.598;15.650;2023-05-20T05:01:37;44.60;;;23.38;;
59193;SDS011;44967;48.598;15.650;2023-05-20T05:04:02;41.90;;;23.52;;
59193;SDS011;44967;48.598;15.650;2023-05-20T05:06:28;40.25;;;22.15;;
59193;SDS011;44967;48.598;15.650;2023-05-20T05:08:54;41.47;;;22.08;;
59193;SDS011;44967;48.598;15.650;2023-05-20T05:11:19;38.65;;;21.75;;
59193;SDS011;44967;48.598;15.650;2023-05-20T05:13:45;38.22;;;20.75;;
59193;SDS011;44967;48.598;15.650;2023-05-20T05:16:11;38.58;;;21.88;;
59193;SDS011;44967;48.598;15.650;2023-05-20T05:18:37;36.53;;;21.15;;
59193;SDS011;44967;48.598;15.650;2023-05-20T05:21:04;40.30;;;21.05;;
59193;SDS011;44967;48.598;15.650;2023-05-20T05:23:31;40.75;;;21.50;;
59193;SDS011;44967;48.598;15.650;2023-05-20T05:25:57;42.65;;;21.83;;
59193;SDS011;44967;48.598;15.650;2023-05-20T05:28:23;35.00;;;20.45;;
59193;SDS011;44967;48.598;15.650;2023-05-20T05:30:49;38.70;;;20.65;;
59193;SDS011;44967;48.598;15.650;2023-05-20T05:33:15;35.72;;;20.92;;
59193;SDS011;44967;48.598;15.650;2023-05-20T05:35:41;40.97;;;22.42;;
59193;SDS011;44967;48.598;15.650;2023-05-20T05:38:08;39.28;;;21.67;;
59193;SDS011;44967;48.598;15.650;2023-05-20T05:40:34;36.72;;;20.67;;
59193;SDS011;44967;48.598;15.650;2023-05-20T05:43:00;41.17;;;21.75;;
59193;SDS011;44967;48.598;15.650;2023-05-20T05:45:26;34.50;;;19.98;;
59193;SDS011;44967;48.598;15.650;2023-05-20T05:47:52;39.28;;;21.23;;
59193;SDS011;44967;48.598;15.650;2023-05-20T05:50:18;39.30;;;21.50;;
59193;SDS011;44967;48.598;15.650;2023-05-20T05:52:44;35.80;;;20.45;;
59193;SDS011;44967;48.598;15.650;2023-05-20T05:55:10;35.17;;;21.17;;
59193;SDS011;44967;48.598;15.650;2023-05-20T05:57:36;37.95;;;21.85;;
59193;SDS011;44967;48.598;15.650;2023-05-20T06:00:02;39.90;;;21.05;;
59193;SDS011;44967;48.598;15.650;2023-05-20T06:02:29;37.90;;;20.83;;
59193;SDS011;44967;48.598;15.650;2023-05-20T06:04:54;34.58;;;20.02;;
59193;SDS011;44967;48.598;15.650;2023-05-20T06:07:20;37.42;;;20.75;;
59193;SDS011;44967;48.598;15.650;2023-05-20T06:09:48;37.70;;;20.67;;
59193;SDS011;44967;48.598;15.650;2023-05-20T06:12:13;36.65;;;20.20;;
59193;SDS011;44967;48.598;15.650;2023-05-20T06:14:39;37.67;;;20.88;;
59193;SDS011;44967;48.598;15.650;2023-05-20T06:17:04;37.50;;;20.85;;
59193;SDS011;44967;48.598;15.650;2023-05-20T06:19:30;43.40;;;24.45;;
59193;SDS011;44967;48.598;15.650;2023-05-20T06:21:56;39.67;;;22.55;;
59193;SDS011;44967;48.598;15.650;2023-05-20T06:24:22;37.15;;;21.00;;
59193;SDS011;44967;48.598;15.650;2023-05-20T06:26:48;39.65;;;21.58;;
59193;SDS011;44967;48.598;15.650;2023-05-20T06:29:15;38.40;;;22.20;;
59193;SDS011;44967;48.598;15.650;2023-05-20T06:31:41;37.78;;;21.45;;
59193;SDS011;44967;48.598;15.650;2023-05-20T06:34:06;35.67;;;20.20;;
59193;SDS011;44967;48.598;15.650;2023-05-20T06:36:32;37.75;;;20.45;;
59193;SDS011;44967;48.598;15.650;2023-05-20T06:38:58;38.60;;;22.50;;
59193;SDS011;44967;48.598;15.650;2023-05-20T06:41:23;36.85;;;20.42;;
59193;SDS011;44967;48.598;15.650;2023-05-20T06:43:49;39.15;;;21.13;;
59193;SDS011;44967;48.598;15.650;2023-05-20T06:46:15;34.45;;;20.73;;
59193;SDS011;44967;48.598;15.650;2023-05-20T06:48:41;37.10;;;21.27;;
59193;SDS011;44967;48.598;15.650;2023-05-20T06:51:07;40.58;;;21.83;;
59193;SDS011;44967;48.598;15.650;2023-05-20T06:53:33;33.50;;;19.67;;
59193;SDS011;44967;48.598;15.650;2023-05-20T06:55:59;38.00;;;21.65;;
59193;SDS011;44967;48.598;15.650;2023-05-20T06:58:25;38.95;;;22.17;;
59193;SDS011;44967;48.598;15.650;2023-05-20T07:00:52;36.20;;;21.10;;
59193;SDS011;44967;48.598;15.650;2023-05-20T07:03:17;40.35;;;21.08;;
59193;SDS011;44967;48.598;15.650;2023-05-20T07:05:43;37.92;;;21.13;;
59193;SDS011;44967;48.598;15.650;2023-05-20T07:08:09;35.95;;;21.35;;
59193;SDS011;44967;48.598;15.650;2023-05-20T07:10:36;33.67;;;19.05;;
59193;SDS011;44967;48.598;15.650;2023-05-20T07:13:01;33.53;;;20.27;;
59193;SDS011;44967;48.598;15.650;2023-05-20T07:15:27;32.92;;;20.38;;
59193;SDS011;44967;48.598;15.650;2023-05-20T07:17:53;34.17;;;19.75;;
59193;SDS011;44967;48.598;15.650;2023-05-20T07:20:19;36.30;;;20.27;;
59193;SDS011;44967;48.598;15.650;2023-05-20T07:22:45;37.40;;;21.27;;
59193;SDS011;44967;48.598;15.650;2023-05-20T07:25:12;38.55;;;21.67;;
59193;SDS011;44967;48.598;15.650;2023-05-20T07:27:38;36.90;;;21.25;;
59193;SDS011;44967;48.598;15.650;2023-05-20T07:30:04;37.15;;;21.13;;
59193;SDS011;44967;48.598;15.650;2023-05-20T07:32:30;36.90;;;22.25;;
59193;SDS011;44967;48.598;15.650;2023-05-20T07:34:56;31.70;;;20.08;;
59193;SDS011;44967;48.598;15.650;2023-05-20T07:37:22;37.28;;;19.67;;
59193;SDS011;44967;48.598;15.650;2023-05-20T07:39:48;33.50;;;19.77;;
59193;SDS011;44967;48.598;15.650;2023-05-20T07:42:14;33.40;;;19.75;;
59193;SDS011;44967;48.598;15.650;2023-05-20T07:44:40;35.42;;;19.92;;
59193;SDS011;44967;48.598;15.650;2023-05-20T07:47:05;34.20;;;21.30;;
59193;SDS011;44967;48.598;15.650;2023-05-20T07:49:31;35.78;;;20.73;;
59193;SDS011;44967;48.598;15.650;2023-05-20T07:51:57;35.67;;;20.05;;
59193;SDS011;44967;48.598;15.650;2023-05-20T07:54:23;35.50;;;20.67;;
59193;SDS011;44967;48.598;15.650;2023-05-20T07:56:49;32.88;;;20.58;;
59193;SDS011;44967;48.598;15.650;2023-05-20T07:59:14;36.65;;;21.88;;
59193;SDS011;44967;48.598;15.650;2023-05-20T08:01:40;33.85;;;18.75;;
59193;SDS011;44967;48.598;15.650;2023-05-20T08:04:06;35.95;;;19.33;;
59193;SDS011;44967;48.598;15.650;2023-05-20T08:06:32;34.35;;;20.58;;
59193;SDS011;44967;48.598;15.650;2023-05-20T08:08:59;36.35;;;22.23;;
59193;SDS011;44967;48.598;15.650;2023-05-20T08:11:26;34.97;;;20.20;;
59193;SDS011;44967;48.598;15.650;2023-05-20T08:13:52;34.45;;;19.98;;
59193;SDS011;44967;48.598;15.650;2023-05-20T08:16:19;33.03;;;19.92;;
59193;SDS011;44967;48.598;15.650;2023-05-20T08:18:46;33.78;;;21.23;;
59193;SDS011;44967;48.598;15.650;2023-05-20T08:21:11;31.63;;;21.00;;
59193;SDS011;44967;48.598;15.650;2023-05-20T08:23:38;37.10;;;21.98;;
59193;SDS011;44967;48.598;15.650;2023-05-20T08:26:04;34.53;;;20.27;;
59193;SDS011;44967;48.598;15.650;2023-05-20T08:28:29;32.13;;;19.75;;
59193;SDS011;44967;48.598;15.650;2023-05-20T08:30:56;33.92;;;20.65;;
59193;SDS011;44967;48.598;15.650;2023-05-20T08:33:24;30.17;;;18.63;;
59193;SDS011;44967;48.598;15.650;2023-05-20T08:35:50;34.72;;;20.70;;
59193;SDS011;44967;48.598;15.650;2023-05-20T08:38:16;30.50;;;18.17;;
59193;SDS011;44967;48.598;15.650;2023-05-20T08:40:42;31.55;;;20.13;;
59193;SDS011;44967;48.598;15.650;2023-05-20T08:43:08;32.80;;;20.02;;
59193;SDS011;44967;48.598;15.650;2023-05-20T08:45:36;26.95;;;17.73;;
59193;SDS011;44967;48.598;15.650;2023-05-20T08:48:03;28.00;;;17.23;;
59193;SDS011;44967;48.598;15.650;2023-05-20T08:50:32;25.85;;;17.60;;
59193;SDS011;44967;48.598;15.650;2023-05-20T08:52:58;26.70;;;16.85;;
59193;SDS011;44967;48.598;15.650;2023-05-20T08:55:27;23.70;;;16.48;;
59193;SDS011;44967;48.598;15.650;2023-05-20T08:57:58;25.65;;;16.40;;
59193;SDS011;44967;48.598;15.650;2023-05-20T09:00:24;26.23;;;18.02;;
59193;SDS011;44967;48.598;15.650;2023-05-20T09:02:53;24.05;;;17.38;;
59193;SDS011;44967;48.598;15.650;2023-05-20T09:05:20;23.90;;;15.32;;
59193;SDS011;44967;48.598;15.650;2023-05-20T09:07:46;26.52;;;17.85;;
59193;SDS011;44967;48.598;15.650;2023-05-20T09:10:12;27.63;;;17.77;;
59193;SDS011;44967;48.598;15.650;2023-05-20T09:12:38;24.48;;;17.17;;
59193;SDS011;44967;48.598;15.650;2023-05-20T09:15:04;26.98;;;18.20;;
59193;SDS011;44967;48.598;15.650;2023-05-20T09:17:33;23.27;;;16.98;;
59193;SDS011;44967;48.598;15.650;2023-05-20T09:20:01;29.02;;;17.50;;
59193;SDS011;44967;48.598;15.650;2023-05-20T09:22:30;28.50;;;17.95;;
59193;SDS011;44967;48.598;15.650;2023-05-20T09:24:56;26.60;;;16.15;;
59193;SDS011;44967;48.598;15.650;2023-05-20T09:27:21;27.17;;;17.13;;
59193;SDS011;44967;48.598;15.650;2023-05-20T09:29:49;25.60;;;16.30;;
59193;SDS011;44967;48.598;15.650;2023-05-20T09:32:17;21.02;;;14.32;;
59193;SDS011;44967;48.598;15.650;2023-05-20T09:34:45;21.52;;;14.85;;
59193;SDS011;44967;48.598;15.650;2023-05-20T09:37:13;20.50;;;13.65;;
59193;SDS011;44967;48.598;15.650;2023-05-20T09:39:47;22.02;;;15.73;;
59193;SDS011;44967;48.598;15.650;2023-05-20T09:42:37;23.58;;;15.32;;
59193;SDS011;44967;48.598;15.650;2023-05-20T09:45:07;22.25;;;14.82;;
59193;SDS011;44967;48.598;15.650;2023-05-20T09:47:34;21.85;;;15.02;;
59193;SDS011;44967;48.598;15.650;2023-05-20T09:50:03;21.17;;;15.48;;
59193;SDS011;44967;48.598;15.650;2023-05-20T09:52:32;21.98;;;13.55;;
59193;SDS011;44967;48.598;15.650;2023-05-20T09:55:01;18.15;;;13.38;;
59193;SDS011;44967;48.598;15.650;2023-05-20T09:57:33;20.33;;;14.25;;
59193;SDS011;44967;48.598;15.650;2023-05-20T09:59:59;19.40;;;13.77;;
59193;SDS011;44967;48.598;15.650;2023-05-20T10:02:26;21.83;;;13.52;;
59193;SDS011;44967;48.598;15.650;2023-05-20T10:04:52;23.85;;;14.05;;
59193;SDS011;44967;48.598;15.650;2023-05-20T10:07:25;19.33;;;12.85;;
59193;SDS011;44967;48.598;15.650;2023-05-20T10:18:41;19.05;;;13.35;;
59193;SDS011;44967;48.598;15.650;2023-05-20T10:21:15;17.63;;;12.55;;
59193;SDS011;44967;48.598;15.650;2023-05-20T10:23:41;16.80;;;12.02;;
59193;SDS011;44967;48.598;15.650;2023-05-20T10:26:07;16.52;;;11.23;;
59193;SDS011;44967;48.598;15.650;2023-05-20T10:28:33;15.43;;;12.25;;
59193;SDS011;44967;48.598;15.650;2023-05-20T10:31:13;19.48;;;12.48;;
59193;SDS011;44967;48.598;15.650;2023-05-20T10:33:45;20.85;;;13.57;;
59193;SDS011;44967;48.598;15.650;2023-05-20T10:36:21;18.50;;;13.55;;
59193;SDS011;44967;48.598;15.650;2023-05-20T10:38:51;20.23;;;14.20;;
59193;SDS011;44967;48.598;15.650;2023-05-20T10:41:25;17.77;;;12.25;;
59193;SDS011;44967;48.598;15.650;2023-05-20T10:43:58;16.98;;;13.35;;
59193;SDS011;44967;48.598;15.650;2023-05-20T10:46:31;15.75;;;12.73;;
59193;SDS011;44967;48.598;15.650;2023-05-20T10:48:58;17.02;;;12.77;;
59193;SDS011;44967;48.598;15.650;2023-05-20T10:51:25;17.60;;;12.73;;
59193;SDS011;44967;48.598;15.650;2023-05-20T10:53:54;21.83;;;12.75;;
59193;SDS011;44967;48.598;15.650;2023-05-20T10:56:25;19.77;;;12.80;;
59193;SDS011;44967;48.598;15.650;2023-05-20T10:58:51;12.07;;;10.32;;
59193;SDS011;44967;48.598;15.650;2023-05-20T11:01:22;12.10;;;10.00;;
59193;SDS011;44967;48.598;15.650;2023-05-20T11:03:49;14.02;;;9.95;;
59193;SDS011;44967;48.598;15.650;2023-05-20T11:06:16;12.45;;;9.90;;
59193;SDS011;44967;48.598;15.650;2023-05-20T11:08:43;11.00;;;9.13;;
59193;SDS011;44967;48.598;15.650;2023-05-20T11:11:10;12.27;;;9.75;;
59193;SDS011;44967;48.598;15.650;2023-05-20T11:13:37;11.60;;;9.75;;
59193;SDS011;44967;48.598;15.650;2023-05-20T11:16:03;13.25;;;10.63;;
59193;SDS011;44967;48.598;15.650;2023-05-20T11:18:29;13.18;;;9.95;;
59193;SDS011;44967;48.598;15.650;2023-05-20T11:20:59;15.13;;;10.10;;
59193;SDS011;44967;48.598;15.650;2023-05-20T11:23:26;13.43;;;9.95;;
59193;SDS011;44967;48.598;15.650;2023-05-20T11:25:53;13.13;;;10.88;;
59193;SDS011;44967;48.598;15.650;2023-05-20T11:28:20;15.82;;;11.20;;
59193;SDS011;44967;48.598;15.650;2023-05-20T11:30:47;14.57;;;10.95;;
59193;SDS011;44967;48.598;15.650;2023-05-20T11:33:14;11.25;;;9.35;;
59193;SDS011;44967;48.598;15.650;2023-05-20T11:35:48;10.57;;;9.18;;
59193;SDS011;44967;48.598;15.650;2023-05-20T11:38:18;11.75;;;9.18;;
59193;SDS011;44967;48.598;15.650;2023-05-20T11:40:51;12.88;;;9.63;;
59193;SDS011;44967;48.598;15.650;2023-05-20T11:43:19;11.90;;;9.20;;
59193;SDS011;44967;48.598;15.650;2023-05-20T11:45:52;10.82;;;8.20;;
59193;SDS011;44967;48.598;15.650;2023-05-20T11:48:22;10.88;;;8.18;;
59193;SDS011;44967;48.598;15.650;2023-05-20T11:50:48;13.82;;;9.73;;
59193;SDS011;44967;48.598;15.650;2023-05-20T11:53:17;10.85;;;9.10;;
59193;SDS011;44967;48.598;15.650;2023-05-20T11:55:45;10.02;;;8.32;;
59193;SDS011;44967;48.598;15.650;2023-05-20T11:58:16;12.15;;;8.65;;
59193;SDS011;44967;48.598;15.650;2023-05-20T12:00:47;11.17;;;8.97;;
59193;SDS011;44967;48.598;15.650;2023-05-20T12:03:13;12.98;;;8.80;;
59193;SDS011;44967;48.598;15.650;2023-05-20T12:05:41;10.18;;;8.60;;
59193;SDS011;44967;48.598;15.650;2023-05-20T12:08:07;10.10;;;8.88;;
59193;SDS011;44967;48.598;15.650;2023-05-20T12:10:33;12.05;;;9.20;;
59193;SDS011;44967;48.598;15.650;2023-05-20T12:13:01;11.80;;;9.88;;
59193;SDS011;44967;48.598;15.650;2023-05-20T12:15:27;12.88;;;9.80;;
59193;SDS011;44967;48.598;15.650;2023-05-20T12:17:53;11.77;;;9.32;;
59193;SDS011;44967;48.598;15.650;2023-05-20T12:20:23;12.52;;;9.10;;
59193;SDS011;44967;48.598;15.650;2023-05-20T12:22:52;10.00;;;8.95;;
59193;SDS011;44967;48.598;15.650;2023-05-20T12:25:19;10.07;;;8.77;;
59193;SDS011;44967;48.598;15.650;2023-05-20T12:27:46;10.02;;;8.50;;
59193;SDS011;44967;48.598;15.650;2023-05-20T12:30:19;11.38;;;8.45;;
59193;SDS011;44967;48.598;15.650;2023-05-20T12:32:46;9.68;;;8.20;;
59193;SDS011;44967;48.598;15.650;2023-05-20T12:35:13;9.57;;;7.63;;
59193;SDS011;44967;48.598;15.650;2023-05-20T12:37:40;8.38;;;7.53;;
59193;SDS011;44967;48.598;15.650;2023-05-20T12:40:07;9.90;;;7.57;;
59193;SDS011;44967;48.598;15.650;2023-05-20T12:42:35;7.90;;;7.10;;
59193;SDS011;44967;48.598;15.650;2023-05-20T12:45:02;11.68;;;7.50;;
59193;SDS011;44967;48.598;15.650;2023-05-20T12:47:28;8.15;;;7.15;;
59193;SDS011;44967;48.598;15.650;2023-05-20T12:49:55;8.15;;;7.25;;
59193;SDS011;44967;48.598;15.650;2023-05-20T12:52:20;8.50;;;7.30;;
59193;SDS011;44967;48.598;15.650;2023-05-20T12:54:46;9.70;;;6.88;;
59193;SDS011;44967;48.598;15.650;2023-05-20T12:57:12;8.20;;;7.40;;
59193;SDS011;44967;48.598;15.650;2023-05-20T12:59:38;10.35;;;7.05;;
59193;SDS011;44967;48.598;15.650;2023-05-20T13:02:03;10.80;;;7.50;;
59193;SDS011;44967;48.598;15.650;2023-05-20T13:04:29;8.38;;;6.93;;
59193;SDS011;44967;48.598;15.650;2023-05-20T13:06:58;11.95;;;7.70;;
59193;SDS011;44967;48.598;15.650;2023-05-20T13:09:24;9.20;;;7.85;;
59193;SDS011;44967;48.598;15.650;2023-05-20T13:11:49;7.53;;;6.82;;
59193;SDS011;44967;48.598;15.650;2023-05-20T13:14:15;9.43;;;7.55;;
59193;SDS011;44967;48.598;15.650;2023-05-20T13:16:41;8.75;;;7.07;;
59193;SDS011;44967;48.598;15.650;2023-05-20T13:19:06;7.30;;;6.60;;
59193;SDS011;44967;48.598;15.650;2023-05-20T13:21:32;12.93;;;8.43;;
59193;SDS011;44967;48.598;15.650;2023-05-20T13:23:58;8.88;;;7.32;;
59193;SDS011;44967;48.598;15.650;2023-05-20T13:26:25;8.43;;;7.55;;
59193;SDS011;44967;48.598;15.650;2023-05-20T13:28:51;9.35;;;8.05;;
59193;SDS011;44967;48.598;15.650;2023-05-20T13:31:17;8.70;;;7.85;;
59193;SDS011;44967;48.598;15.650;2023-05-20T13:33:42;10.60;;;7.95;;
59193;SDS011;44967;48.598;15.650;2023-05-20T13:36:08;10.30;;;7.78;;
59193;SDS011;44967;48.598;15.650;2023-05-20T13:38:34;8.48;;;7.65;;
59193;SDS011;44967;48.598;15.650;2023-05-20T13:41:00;9.65;;;8.20;;
59193;SDS011;44967;48.598;15.650;2023-05-20T13:43:26;9.10;;;8.07;;
59193;SDS011;44967;48.598;15.650;2023-05-20T13:45:52;10.73;;;8.90;;
59193;SDS011;44967;48.598;15.650;2023-05-20T13:48:20;13.95;;;8.05;;
59193;SDS011;44967;48.598;15.650;2023-05-20T13:50:45;9.57;;;8.15;;
59193;SDS011;44967;48.598;15.650;2023-05-20T13:53:12;9.15;;;8.25;;
59193;SDS011;44967;48.598;15.650;2023-05-20T13:55:38;9.73;;;8.60;;
59193;SDS011;44967;48.598;15.650;2023-05-20T13:58:05;10.48;;;8.50;;
59193;SDS011;44967;48.598;15.650;2023-05-20T14:00:34;11.38;;;8.70;;
59193;SDS011;44967;48.598;15.650;2023-05-20T14:03:03;10.70;;;9.27;;
59193;SDS011;44967;48.598;15.650;2023-05-20T14:05:32;10.80;;;9.25;;
59193;SDS011;44967;48.598;15.650;2023-05-20T14:07:59;11.63;;;10.43;;
59193;SDS011;44967;48.598;15.650;2023-05-20T14:10:25;12.40;;;9.43;;
59193;SDS011;44967;48.598;15.650;2023-05-20T14:12:52;12.85;;;9.50;;
59193;SDS011;44967;48.598;15.650;2023-05-20T14:15:19;11.27;;;9.48;;
59193;SDS011;44967;48.598;15.650;2023-05-20T14:17:45;10.63;;;9.18;;
59193;SDS011;44967;48.598;15.650;2023-05-20T14:20:12;11.40;;;9.07;;